Time;durP1;ratioP1;P1;durP2;ratioP2;P2;SDS_P1;SDS_P2;PMS_P1;PMS_P2;Temp;Humidity;BMP_temperature;BMP_pressure;BME280_temperature;BME280_humidity;BME280_pressure;Samples;Min_cycle;Max_cycle;Signal;HPM_P1;HPM_P2
2022/08/17 00:01:28;;;;;;;16.52;14.73;;;;;;;16.91;100.00;100352.22;5011326;28;20080;-79
2022/08/17 00:04:18;;;;;;;16.88;15.00;;;;;;;16.87;100.00;100358.66;5014291;28;20038;-78
2022/08/17 00:06:45;;;;;;;16.35;14.75;;;;;;;16.83;100.00;100357.09;5012682;28;20069;-79
2022/08/17 00:09:15;;;;;;;16.77;15.05;;;;;;;16.81;100.00;100359.81;5005800;28;20037;-79
2022/08/17 00:11:46;;;;;;;17.23;15.43;;;;;;;16.81;100.00;100357.16;5016740;28;20434;-78
2022/08/17 00:14:33;;;;;;;17.52;15.73;;;;;;;16.76;100.00;100364.53;5031128;28;20057;-78
2022/08/17 00:17:02;;;;;;;16.73;15.02;;;;;;;16.73;100.00;100364.72;5011262;28;20124;-79
2022/08/17 00:19:31;;;;;;;17.23;15.63;;;;;;;16.71;100.00;100360.38;5011882;28;20517;-78
2022/08/17 00:21:59;;;;;;;17.02;15.32;;;;;;;16.70;100.00;100364.84;5021941;28;20037;-78
2022/08/17 00:24:46;;;;;;;17.00;15.15;;;;;;;16.67;100.00;100364.97;5026953;28;20041;-79
2022/08/17 00:27:12;;;;;;;17.63;15.93;;;;;;;16.64;100.00;100364.25;5002846;28;20060;-78
2022/08/17 00:29:39;;;;;;;16.63;15.00;;;;;;;16.59;100.00;100370.69;5009044;28;20387;-79
2022/08/17 00:32:07;;;;;;;16.13;14.52;;;;;;;16.56;100.00;100373.53;5024061;28;20486;-78
2022/08/17 00:34:53;;;;;;;16.95;15.05;;;;;;;16.57;100.00;100379.72;5023961;28;20092;-78
2022/08/17 00:37:20;;;;;;;17.25;15.48;;;;;;;16.55;100.00;100386.91;5025947;28;20044;-80
2022/08/17 00:39:47;;;;;;;17.92;16.10;;;;;;;16.53;100.00;100378.13;5028590;28;20048;-79
2022/08/17 00:42:15;;;;;;;17.00;15.20;;;;;;;16.56;100.00;100377.97;5009227;28;20053;-78
2022/08/17 00:44:42;;;;;;;18.58;16.77;;;;;;;16.51;100.00;100375.53;5008131;28;20045;-78
2022/08/17 00:47:08;;;;;;;18.40;16.50;;;;;;;16.48;100.00;100374.81;4991801;28;20049;-78
2022/08/17 00:49:35;;;;;;;18.50;16.70;;;;;;;16.48;100.00;100375.72;4996013;28;20045;-79
2022/08/17 00:52:07;;;;;;;18.67;16.80;;;;;;;16.39;100.00;100377.94;5010189;28;20041;-79
2022/08/17 00:54:39;;;;;;;18.15;16.25;;;;;;;16.32;100.00;100375.59;5011079;28;20033;-78
2022/08/17 00:57:10;;;;;;;18.80;16.88;;;;;;;16.31;100.00;100379.19;5028014;28;20132;-78
2022/08/17 00:59:40;;;;;;;18.08;16.17;;;;;;;16.29;100.00;100369.53;5015002;28;20037;-78
2022/08/17 01:02:08;;;;;;;18.63;16.83;;;;;;;16.27;100.00;100369.59;5006968;28;20116;-78
2022/08/17 01:04:35;;;;;;;17.27;15.57;;;;;;;16.27;100.00;100368.75;5013655;28;20481;-78
2022/08/17 01:07:02;;;;;;;17.52;15.75;;;;;;;16.26;100.00;100370.53;5011366;28;20132;-78
2022/08/17 01:09:30;;;;;;;19.42;17.50;;;;;;;16.32;100.00;100372.06;5039950;28;20043;-78
2022/08/17 01:11:57;;;;;;;17.50;15.80;;;;;;;16.26;100.00;100365.22;5017179;28;20048;-79
2022/08/17 01:14:25;;;;;;;18.63;16.80;;;;;;;16.21;100.00;100358.38;5011638;28;20634;-79
2022/08/17 01:16:53;;;;;;;18.77;16.88;;;;;;;16.18;100.00;100369.19;5051318;28;20060;-79
2022/08/17 01:19:27;;;;;;;19.52;17.42;;;;;;;16.16;100.00;100363.94;5011307;28;20041;-78
2022/08/17 01:22:02;;;;;;;;;;;;;;;16.13;100.00;100369.41;5025228;28;20046;-79
2022/08/17 01:24:30;;;;;;;17.77;15.98;;;;;;;16.10;100.00;100366.88;5005080;28;19928;-78
2022/08/17 01:26:59;;;;;;;18.90;16.90;;;;;;;16.08;100.00;100379.44;5032567;28;20041;-79
2022/08/17 01:29:29;;;;;;;17.45;15.52;;;;;;;16.07;100.00;100374.19;5027739;28;20037;-79
2022/08/17 01:32:03;;;;;;;17.88;16.08;;;;;;;16.03;100.00;100379.63;5001663;28;20042;-78
2022/08/17 01:34:30;;;;;;;16.70;15.00;;;;;;;16.01;100.00;100381.50;4995382;28;20490;-78
2022/08/17 01:37:10;;;;;;;17.48;15.57;;;;;;;15.99;100.00;100383.41;5017609;28;20044;-77
2022/08/17 01:39:46;;;;;;;17.58;15.85;;;;;;;15.98;100.00;100381.69;5014357;28;20048;-78
2022/08/17 01:42:23;;;;;;;16.65;15.05;;;;;;;15.95;100.00;100381.81;5025247;28;20033;-78
2022/08/17 01:44:55;;;;;;;17.95;16.15;;;;;;;15.94;100.00;100379.22;5016078;28;20514;-78
2022/08/17 01:47:22;;;;;;;18.90;16.90;;;;;;;15.91;100.00;100384.69;5017173;28;20490;-78
2022/08/17 01:49:49;;;;;;;17.52;15.73;;;;;;;15.87;100.00;100386.63;5027720;28;20095;-78
2022/08/17 01:52:16;;;;;;;18.80;16.92;;;;;;;15.85;100.00;100372.50;5026180;28;20029;-79
2022/08/17 01:54:46;;;;;;;18.63;16.60;;;;;;;15.84;100.00;100380.59;5012537;28;20044;-79
2022/08/17 01:57:13;;;;;;;18.35;16.45;;;;;;;15.80;100.00;100387.84;5023689;28;20041;-78
2022/08/17 01:59:40;;;;;;;18.10;16.20;;;;;;;15.77;100.00;100378.19;5013752;28;20049;-79
2022/08/17 02:02:07;;;;;;;19.30;17.23;;;;;;;15.75;100.00;100382.75;5008175;28;20049;-79
2022/08/17 02:04:34;;;;;;;18.77;16.45;;;;;;;15.76;100.00;100381.81;5034219;28;20037;-78
2022/08/17 02:07:00;;;;;;;18.52;16.05;;;;;;;15.73;100.00;100381.94;5019792;28;20099;-80
2022/08/17 02:09:28;;;;;;;17.85;16.05;;;;;;;15.71;100.00;100386.47;4994316;28;20080;-79
2022/08/17 02:11:58;;;;;;;19.25;16.63;;;;;;;15.70;100.00;100387.41;5013124;28;20124;-79
2022/08/17 02:14:25;;;;;;;18.20;16.38;;;;;;;15.70;100.00;100383.88;5036189;28;20052;-80
2022/08/17 02:16:52;;;;;;;18.92;17.02;;;;;;;15.69;100.00;100384.81;4986336;28;20499;-78
2022/08/17 02:19:19;;;;;;;19.92;17.75;;;;;;;15.70;100.00;100387.41;5017089;28;20045;-80
2022/08/17 02:21:48;;;;;;;19.10;17.08;;;;;;;15.70;100.00;100382.06;5014072;28;20814;-80
2022/08/17 02:24:25;;;;;;;18.77;16.70;;;;;;;15.62;100.00;100376.22;5044430;28;20125;-79
2022/08/17 02:27:12;;;;;;;18.98;17.05;;;;;;;15.53;100.00;100383.75;5014817;28;20131;-78
2022/08/17 02:29:38;;;;;;;19.45;17.55;;;;;;;15.46;100.00;100380.50;5031808;28;20044;-79
2022/08/17 02:32:05;;;;;;;18.55;16.75;;;;;;;15.45;100.00;100381.44;5012559;28;20402;-78
2022/08/17 02:34:32;;;;;;;19.00;17.10;;;;;;;15.43;100.00;100391.28;5011055;28;20033;-77
2022/08/17 02:36:59;;;;;;;21.85;19.52;;;;;;;15.42;100.00;100394.88;5028298;28;20041;-79
2022/08/17 02:39:25;;;;;;;19.95;17.83;;;;;;;15.40;100.00;100391.44;5014385;28;20041;-80
2022/08/17 02:41:59;;;;;;;20.08;17.42;;;;;;;15.37;100.00;100384.44;5026400;28;20045;-79
2022/08/17 02:44:26;;;;;;;19.15;17.13;;;;;;;15.34;100.00;100389.03;5025051;28;20411;-78
2022/08/17 02:47:07;;;;;;;18.95;16.98;;;;;;;15.31;100.00;100384.72;5029724;28;20083;-78
2022/08/17 02:49:36;;;;;;;21.38;18.98;;;;;;;15.30;100.00;100388.31;5038523;28;20087;-79
2022/08/17 02:52:05;;;;;;;20.23;18.23;;;;;;;15.31;100.00;100381.19;5004925;28;20136;-80
2022/08/17 02:54:34;;;;;;;19.08;17.20;;;;;;;15.30;100.00;100385.66;5031201;28;20037;-79
2022/08/17 02:57:07;;;;;;;19.90;17.83;;;;;;;15.29;100.00;100385.69;5041949;28;20072;-77
2022/08/17 02:59:34;;;;;;;18.98;16.98;;;;;;;15.25;100.00;100385.00;5011925;28;20517;-79
2022/08/17 03:02:09;;;;;;;18.50;16.52;;;;;;;15.22;100.00;100387.78;5007562;28;20132;-77
2022/08/17 03:04:36;;;;;;;19.33;17.38;;;;;;;15.18;100.00;100384.38;5015591;28;20033;-78
2022/08/17 03:07:04;;;;;;;21.05;18.95;;;;;;;15.15;100.00;100389.00;5012426;28;20132;-79
2022/08/17 03:09:31;;;;;;;19.02;16.92;;;;;;;15.14;100.00;100388.13;5010825;28;20049;-78
2022/08/17 03:12:11;;;;;;;18.33;16.42;;;;;;;15.15;100.00;100391.66;5028502;28;22060;-78
2022/08/17 03:14:39;;;;;;;20.67;17.85;;;;;;;15.12;100.00;100378.47;5004257;28;20124;-79
2022/08/17 03:17:13;;;;;;;19.83;17.73;;;;;;;15.10;100.00;100380.34;5009865;28;20052;-79
2022/08/17 03:19:43;;;;;;;19.00;17.10;;;;;;;15.07;100.00;100388.47;5029845;28;20049;-78
2022/08/17 03:22:10;;;;;;;19.10;17.13;;;;;;;15.05;100.00;100391.19;5007152;28;20038;-77
2022/08/17 03:24:58;;;;;;;20.08;17.98;;;;;;;15.07;100.00;100384.00;5020999;28;20065;-78
2022/08/17 03:27:25;;;;;;;20.60;18.40;;;;;;;15.08;100.00;100383.06;5027264;28;20072;-78
2022/08/17 03:29:52;;;;;;;20.45;18.45;;;;;;;15.08;100.00;100383.06;5011300;28;20136;-77
2022/08/17 03:32:19;;;;;;;19.02;17.15;;;;;;;15.05;100.00;100388.53;5010215;28;20420;-78
2022/08/17 03:34:46;;;;;;;18.65;16.73;;;;;;;15.00;100.00;100390.50;5040523;28;20482;-79
2022/08/17 03:37:13;;;;;;;18.25;16.20;;;;;;;14.97;100.00;100389.78;5007335;28;20129;-78
2022/08/17 03:39:40;;;;;;;20.92;18.73;;;;;;;14.93;100.00;100387.25;5000038;28;20041;-78
2022/08/17 03:42:15;;;;;;;19.10;17.10;;;;;;;14.92;100.00;100380.19;5026388;28;20061;-78
2022/08/17 03:44:59;;;;;;;19.63;17.52;;;;;;;14.92;100.00;100382.00;5029175;28;20037;-78
2022/08/17 03:58:28;;;;;;;19.95;17.88;;;;;;;14.87;100.00;100384.84;5012753;28;20056;-79
2022/08/17 04:00:54;;;;;;;20.27;18.08;;;;;;;14.87;100.00;100381.31;5044698;28;20334;-78
2022/08/17 04:03:21;;;;;;;20.30;18.20;;;;;;;14.87;100.00;100384.84;5011285;28;20046;-78
2022/08/17 04:05:48;;;;;;;19.40;17.50;;;;;;;14.89;100.00;100388.31;5017986;28;20034;-78
2022/08/17 04:08:14;;;;;;;20.73;18.02;;;;;;;14.89;100.00;100387.47;5001590;28;20322;-78
2022/08/17 04:10:41;;;;;;;19.40;17.40;;;;;;;14.90;100.00;100391.84;5009088;28;20056;-77
2022/08/17 04:13:11;;;;;;;22.23;18.85;;;;;;;14.92;100.00;100385.50;5027044;28;20042;-78
2022/08/17 04:15:41;;;;;;;21.67;19.45;;;;;;;14.95;100.00;100397.81;5010758;28;20057;-79
2022/08/17 04:18:08;;;;;;;20.67;18.50;;;;;;;14.93;100.00;100395.22;5019771;28;20047;-79
2022/08/17 04:20:36;;;;;;;20.45;18.35;;;;;;;14.93;100.00;100402.34;5020765;28;20120;-78
2022/08/17 04:23:10;;;;;;;20.02;17.92;;;;;;;14.92;100.00;100397.94;4988359;28;20038;-78
2022/08/17 04:25:40;;;;;;;20.98;18.88;;;;;;;14.95;100.00;100397.81;5001701;28;20087;-79
2022/08/17 04:28:07;;;;;;;20.58;18.40;;;;;;;14.99;100.00;100403.88;5022952;28;20037;-78
2022/08/17 04:30:43;;;;;;;21.83;19.65;;;;;;;15.01;100.00;100402.88;5021968;28;20266;-77
2022/08/17 04:33:13;;;;;;;19.48;17.48;;;;;;;15.04;100.00;100401.88;5003942;28;20037;-78
2022/08/17 04:35:44;;;;;;;20.02;17.92;;;;;;;15.05;100.00;100403.59;5021170;28;20065;-78
2022/08/17 04:38:17;;;;;;;20.10;18.05;;;;;;;15.07;100.00;100407.09;4998387;28;20049;-79
2022/08/17 04:43:31;;;;;;;20.20;18.20;;;;;;;15.09;100.00;100406.06;5008776;28;20033;-78
2022/08/17 04:46:00;;;;;;;19.63;17.63;;;;;;;15.15;100.00;100411.13;4992308;28;20049;-78
2022/08/17 04:48:33;;;;;;;22.02;19.05;;;;;;;15.28;100.00;100408.78;5001211;28;20690;-80
2022/08/17 04:51:06;;;;;;;26.05;19.40;;;;;;;15.39;100.00;100408.34;5012711;28;20042;-77
2022/08/17 04:53:32;;;;;;;21.48;19.30;;;;;;;15.45;100.00;100411.56;4999197;28;20120;-78
2022/08/17 04:55:59;;;;;;;20.90;18.63;;;;;;;15.53;100.00;100418.34;5012774;28;20043;-78
2022/08/17 04:58:26;;;;;;;20.13;18.02;;;;;;;15.59;100.00;100416.28;5013726;28;20746;-80
2022/08/17 05:00:52;;;;;;;19.88;17.77;;;;;;;15.65;100.00;100418.72;5014083;28;20048;-79
2022/08/17 05:03:19;;;;;;;19.02;17.17;;;;;;;15.72;100.00;100419.28;5013765;28;20038;-78
2022/08/17 05:05:48;;;;;;;19.27;17.33;;;;;;;15.82;100.00;100427.75;5008645;28;20502;-78
2022/08/17 05:08:17;;;;;;;19.50;17.48;;;;;;;15.92;100.00;100429.03;5031413;28;20453;-79
2022/08/17 05:10:44;;;;;;;19.83;17.73;;;;;;;16.00;100.00;100433.09;5027223;28;20048;-78
2022/08/17 05:13:14;;;;;;;18.90;16.92;;;;;;;16.09;100.00;100430.94;5027813;28;20057;-78
2022/08/17 05:15:43;;;;;;;18.00;16.10;;;;;;;16.04;100.00;100428.47;4995722;28;20049;-78
2022/08/17 05:18:14;;;;;;;17.92;16.15;;;;;;;16.11;100.00;100432.56;5030955;28;20537;-77
2022/08/17 05:20:41;;;;;;;17.73;15.95;;;;;;;16.20;100.00;100441.94;5033169;28;20600;-78
2022/08/17 05:23:11;;;;;;;17.40;15.70;;;;;;;16.23;100.00;100434.69;5014225;28;20037;-79
2022/08/17 05:25:44;;;;;;;17.02;15.32;;;;;;;16.28;100.00;100437.97;5015079;28;20042;-78
2022/08/17 05:28:17;;;;;;;17.92;16.15;;;;;;;16.36;100.00;100447.41;5024242;28;20095;-77
2022/08/17 05:30:49;;;;;;;18.20;16.30;;;;;;;16.40;100.00;100449.00;4999733;28;20128;-79
2022/08/17 05:33:18;;;;;;;16.95;15.35;;;;;;;16.55;100.00;100453.59;5034360;28;20046;-79
2022/08/17 05:35:47;;;;;;;16.48;14.77;;;;;;;16.76;100.00;100455.25;5009836;28;20034;-79
2022/08/17 05:38:16;;;;;;;16.38;14.77;;;;;;;16.84;100.00;100447.72;5006880;28;20041;-79
2022/08/17 05:40:43;;;;;;;17.10;15.43;;;;;;;16.88;100.00;100449.28;5019523;28;20048;-79
2022/08/17 05:43:20;;;;;;;16.50;14.93;;;;;;;16.92;100.00;100450.03;5009989;28;20438;-78
2022/08/17 05:46:02;;;;;;;15.23;13.73;;;;;;;16.95;100.00;100452.53;5015359;28;20040;-80
2022/08/17 05:48:37;;;;;;;17.13;15.32;;;;;;;16.96;100.00;100451.56;5012933;28;20053;-78
2022/08/17 05:51:15;;;;;;;15.60;14.05;;;;;;;17.01;100.00;100452.22;5023407;28;20052;-79
2022/08/17 05:54:14;;;;;;;15.63;14.13;;;;;;;17.10;100.00;100454.44;5015270;28;20041;-79
2022/08/17 05:57:14;;;;;;;15.00;13.45;;;;;;;17.42;100.00;100460.78;5027256;28;20045;-76
2022/08/17 06:00:04;;;;;;;14.50;13.10;;;;;;;18.44;100.00;100456.22;5027351;28;20687;-77
2022/08/17 06:02:53;;;;;;;13.10;11.70;;;;;;;18.77;100.00;100448.13;5021567;28;20435;-77
2022/08/17 06:06:05;;;;;;;12.43;10.98;;;;;;;19.05;100.00;100460.75;5008154;28;20042;-78
2022/08/17 06:08:44;;;;;;;11.88;10.73;;;;;;;19.18;100.00;100455.53;5027606;28;20145;-78
2022/08/17 06:11:31;;;;;;;12.18;10.93;;;;;;;19.29;100.00;100458.44;5023025;28;20049;-77
2022/08/17 06:14:19;;;;;;;11.82;10.73;;;;;;;19.34;100.00;100459.03;5026500;28;20037;-79
2022/08/17 06:16:49;;;;;;;12.10;10.95;;;;;;;19.57;100.00;100463.88;4998060;28;20045;-79
2022/08/17 06:19:29;;;;;;;13.15;11.95;;;;;;;19.80;100.00;100467.84;5040146;28;20505;-79
2022/08/17 06:21:57;;;;;;;13.25;12.00;;;;;;;20.23;100.00;100475.88;5013105;28;20537;-79
2022/08/17 06:24:32;;;;;;;13.05;11.80;;;;;;;21.49;100.00;100472.03;5013437;28;20499;-78
2022/08/17 06:27:36;;;;;;;13.55;12.32;;;;;;;22.92;89.66;100471.63;5040039;28;20058;-77
2022/08/17 06:30:24;;;;;;;13.27;12.10;;;;;;;23.85;82.01;100463.63;5001580;28;20417;-77
2022/08/17 06:32:52;;;;;;;13.18;11.93;;;;;;;24.72;76.59;100470.09;5010802;28;20414;-78
2022/08/17 06:35:41;;;;;;;11.20;10.20;;;;;;;25.76;74.80;100474.84;5025973;28;20675;-78
2022/08/17 06:38:31;;;;;;;12.82;11.65;;;;;;;26.37;69.23;100470.28;5004694;28;20061;-78
2022/08/17 06:41:22;;;;;;;13.20;12.00;;;;;;;26.54;67.95;100473.34;5020205;28;20037;-79
2022/08/17 06:44:16;;;;;;;12.73;11.52;;;;;;;26.41;70.36;100475.47;5028510;28;20123;-79
2022/08/17 06:47:12;;;;;;;13.63;12.45;;;;;;;26.54;70.46;100478.78;5021824;28;20047;-79
2022/08/17 06:49:46;;;;;;;15.35;13.95;;;;;;;26.44;71.48;100480.59;5018659;28;20033;-80
2022/08/17 06:52:26;;;;;;;17.98;16.17;;;;;;;26.00;74.59;100483.53;5026949;28;20042;-80
2022/08/17 06:55:20;;;;;;;14.73;13.43;;;;;;;25.80;77.64;100481.69;5006420;28;20038;-79
2022/08/17 06:57:50;;;;;;;14.20;13.00;;;;;;;25.68;78.50;100477.31;5011441;28;20041;-78
2022/08/17 07:00:23;;;;;;;15.02;13.73;;;;;;;25.66;78.55;100488.28;5020153;28;20045;-79
2022/08/17 07:03:20;;;;;;;13.70;12.57;;;;;;;25.78;79.02;100486.38;5022505;28;20560;-80
2022/08/17 07:05:50;;;;;;;14.65;13.45;;;;;;;25.99;79.66;100484.53;5017891;28;20156;-81
2022/08/17 07:08:36;;;;;;;15.10;13.80;;;;;;;26.10;78.84;100487.13;5021158;28;20057;-80
2022/08/17 07:11:11;;;;;;;14.50;13.20;;;;;;;26.31;77.40;100480.78;5019122;28;20103;-81
2022/08/17 07:13:56;;;;;;;14.20;12.95;;;;;;;26.54;74.69;100478.78;5011243;28;20094;-82
2022/08/17 07:16:39;;;;;;;14.10;12.90;;;;;;;26.74;75.78;100493.22;5010186;28;20121;-80
2022/08/17 07:19:07;;;;;;;14.18;12.98;;;;;;;27.21;71.39;100478.91;5009321;28;20049;-80
2022/08/17 07:21:50;;;;;;;13.95;12.75;;;;;;;27.66;66.96;100480.13;5011046;28;20069;-81
2022/08/17 07:24:58;;;;;;;13.60;12.50;;;;;;;28.12;61.51;100486.63;5019599;28;20640;-81
2022/08/17 07:27:29;;;;;;;12.25;11.25;;;;;;;28.29;61.83;100483.16;5014100;28;20041;-81
2022/08/17 07:30:03;;;;;;;12.98;11.98;;;;;;;28.45;60.64;100486.09;4992630;28;20538;-81
2022/08/17 07:32:40;;;;;;;12.98;11.88;;;;;;;28.78;56.49;100483.75;5025509;28;20039;-82
2022/08/17 07:35:17;;;;;;;11.88;10.88;;;;;;;29.18;53.47;100483.34;5004331;28;20045;-82
2022/08/17 07:37:54;;;;;;;12.00;10.90;;;;;;;29.26;56.84;100479.81;5025388;28;20048;-81
2022/08/17 07:40:26;;;;;;;11.98;11.07;;;;;;;29.17;55.04;100477.03;5030626;28;20040;-81
2022/08/17 07:43:19;;;;;;;12.23;11.10;;;;;;;28.98;56.14;100477.19;5024249;28;20041;-81
2022/08/17 07:49:15;;;;;;;11.20;10.10;;;;;;;28.65;55.25;100485.97;5040815;28;20104;-81
2022/08/17 07:51:41;;;;;;;10.98;10.05;;;;;;;28.83;57.97;100490.44;5005458;28;20041;-81
2022/08/17 07:54:11;;;;;;;9.93;9.02;;;;;;;29.00;49.66;100477.88;5033732;28;20045;-81
2022/08/17 07:56:45;;;;;;;9.25;8.48;;;;;;;29.31;50.82;100482.94;5029790;28;20043;-81
2022/08/17 07:59:19;;;;;;;8.63;7.75;;;;;;;29.68;47.43;100478.19;4999172;28;20042;-81
2022/08/17 08:01:55;;;;;;;9.27;8.45;;;;;;;29.75;45.52;100481.09;5015276;28;20040;-82
2022/08/17 08:04:33;;;;;;;9.63;8.77;;;;;;;29.78;46.02;100491.69;5034933;28;20065;-82
2022/08/17 08:07:19;;;;;;;9.25;8.45;;;;;;;29.79;44.17;100487.97;5014225;28;20045;-83
2022/08/17 08:10:05;;;;;;;9.00;8.20;;;;;;;29.91;44.92;100489.38;5029667;28;20037;-83
2022/08/17 08:12:38;;;;;;;7.72;6.78;;;;;;;30.02;41.48;100491.00;5005118;28;20041;-82
2022/08/17 08:15:11;;;;;;;10.32;7.82;;;;;;;30.03;45.08;100490.00;5026720;28;20037;-82
2022/08/17 08:17:56;;;;;;;9.30;8.40;;;;;;;29.91;45.81;100486.66;5018139;28;20219;-81
2022/08/17 08:20:32;;;;;;;10.38;9.48;;;;;;;29.91;47.20;100483.09;5038995;28;20115;-81
2022/08/17 08:23:41;;;;;;;10.43;9.57;;;;;;;29.79;45.26;100487.09;5015867;28;20048;-81
2022/08/17 08:26:13;;;;;;;10.93;9.93;;;;;;;29.89;44.69;100480.53;5006518;28;20087;-80
2022/08/17 08:29:11;;;;;;;11.88;10.77;;;;;;;29.66;44.58;100482.91;5036251;28;20041;-82
2022/08/17 08:32:06;;;;;;;11.32;9.77;;;;;;;29.90;45.16;100484.97;4991117;28;22388;-81
2022/08/17 08:34:36;;;;;;;9.43;8.50;;;;;;;30.13;43.57;100479.84;4995435;28;20033;-81
2022/08/17 08:37:52;;;;;;;10.70;9.23;;;;;;;30.10;44.45;100485.66;5026633;28;20041;-80
2022/08/17 08:40:31;;;;;;;10.55;9.55;;;;;;;30.10;45.82;100482.91;5016517;28;20049;-81
2022/08/17 08:43:17;;;;;;;11.23;10.23;;;;;;;30.21;44.81;100485.34;5028471;28;20049;-82
2022/08/17 08:46:15;;;;;;;10.15;9.25;;;;;;;30.29;43.51;100480.97;5028377;28;20088;-81
2022/08/17 08:49:00;;;;;;;9.05;8.15;;;;;;;30.43;43.60;100480.31;5109307;22;20069;-80
2022/08/17 08:51:45;;;;;;;9.60;8.80;;;;;;;30.64;43.91;100471.72;5014814;28;20100;-80
2022/08/17 08:54:27;;;;;;;9.75;8.95;;;;;;;30.79;44.19;100475.56;5008069;28;20451;-80
2022/08/17 08:57:04;;;;;;;8.90;8.30;;;;;;;31.03;44.42;100472.03;5014608;28;20130;-80
2022/08/17 08:59:50;;;;;;;9.48;8.68;;;;;;;31.19;43.00;100471.16;5000739;28;20056;-80
2022/08/17 09:02:33;;;;;;;8.63;7.82;;;;;;;31.28;42.93;100468.34;5007651;28;20039;-80
2022/08/17 09:05:19;;;;;;;10.20;9.00;;;;;;;31.37;40.66;100464.56;4992410;28;20073;-80
2022/08/17 09:08:09;;;;;;;8.98;8.20;;;;;;;31.46;40.22;100467.31;5007387;28;20061;-80
2022/08/17 09:11:04;;;;;;;9.13;8.27;;;;;;;31.79;40.60;100460.81;5010373;28;20068;-80
2022/08/17 09:13:39;;;;;;;8.23;7.43;;;;;;;32.03;40.71;100464.50;5015884;28;20041;-80
2022/08/17 09:17:05;;;;;;;8.60;7.65;;;;;;;32.18;38.92;100460.00;5005892;28;20042;-81
2022/08/17 09:19:44;;;;;;;8.70;7.38;;;;;;;32.30;39.98;100460.50;4985305;28;20057;-80
2022/08/17 09:22:24;;;;;;;8.20;7.35;;;;;;;32.11;38.03;100467.19;4988453;28;20546;-79
2022/08/17 09:25:01;;;;;;;7.85;7.03;;;;;;;32.41;38.73;100460.97;5005045;28;20037;-78
2022/08/17 09:28:04;;;;;;;7.75;7.15;;;;;;;32.62;37.86;100464.97;5012129;28;20080;-80
2022/08/17 09:30:51;;;;;;;9.18;8.27;;;;;;;32.48;37.61;100461.97;5013452;28;20060;-81
2022/08/17 09:33:21;;;;;;;7.93;7.22;;;;;;;31.77;38.48;100464.72;5005812;28;20035;-81
2022/08/17 09:35:53;;;;;;;8.95;8.07;;;;;;;31.43;40.65;100453.97;5010312;28;20057;-81
2022/08/17 09:38:48;;;;;;;8.75;7.93;;;;;;;31.07;41.33;100452.41;5015432;28;20052;-81
2022/08/17 09:41:33;;;;;;;8.48;7.57;;;;;;;30.92;41.06;100448.63;5013687;28;20066;-82
2022/08/17 09:44:06;;;;;;;8.30;7.30;;;;;;;31.25;40.99;100449.53;5020808;28;20045;-83
2022/08/17 09:47:18;;;;;;;7.03;6.43;;;;;;;31.92;39.29;100454.78;4996313;28;20516;-80
2022/08/17 09:49:51;;;;;;;6.78;6.18;;;;;;;31.64;39.07;100459.78;5005440;28;20145;-81
2022/08/17 09:52:21;;;;;;;7.80;6.82;;;;;;;31.66;39.73;100458.56;5036301;28;20049;-80
2022/08/17 09:54:50;;;;;;;7.22;6.53;;;;;;;32.03;38.41;100448.94;5015747;28;20033;-82
2022/08/17 09:57:28;;;;;;;7.25;6.60;;;;;;;32.21;39.46;100449.59;5028880;28;20043;-81
2022/08/17 10:00:14;;;;;;;9.40;6.43;;;;;;;31.83;38.07;100458.56;5016693;28;20046;-80
2022/08/17 10:03:08;;;;;;;7.20;6.60;;;;;;;31.53;39.18;100462.84;5020779;28;20049;-81
2022/08/17 10:05:46;;;;;;;6.63;6.03;;;;;;;31.23;39.73;100459.78;4998831;28;20049;-82
2022/08/17 10:08:34;;;;;;;7.60;6.88;;;;;;;30.63;40.38;100459.13;4999280;28;20085;-81
2022/08/17 10:11:08;;;;;;;7.28;6.65;;;;;;;30.38;43.18;100455.44;5018703;28;20041;-80
2022/08/17 10:13:58;;;;;;;6.40;5.65;;;;;;;29.96;43.90;100461.69;5010549;28;20046;-81
2022/08/17 10:16:49;;;;;;;8.82;6.70;;;;;;;29.67;45.79;100462.84;5017929;28;20029;-80
2022/08/17 10:19:38;;;;;;;7.35;6.65;;;;;;;29.53;46.39;100465.31;5008483;28;20109;-81
2022/08/17 10:28:19;;;;;;;7.07;6.38;;;;;;;29.71;45.18;100458.81;5020210;28;20050;-81
2022/08/17 10:30:52;;;;;;;7.10;6.40;;;;;;;29.73;44.32;100461.38;4996313;28;20052;-80
2022/08/17 10:34:00;;;;;;;8.77;6.60;;;;;;;30.37;42.80;100459.19;4999699;28;20721;-81
2022/08/17 10:36:48;;;;;;;6.70;6.10;;;;;;;30.69;42.28;100458.47;5010784;28;20172;-81
2022/08/17 10:39:29;;;;;;;6.57;5.97;;;;;;;30.58;40.99;100459.59;5012064;28;20045;-79
2022/08/17 10:42:02;;;;;;;6.68;6.05;;;;;;;30.63;41.51;100456.38;5007500;28;20049;-79
2022/08/17 10:44:41;;;;;;;7.32;5.95;;;;;;;30.50;42.35;100462.28;4985814;28;20056;-80
2022/08/17 10:47:14;;;;;;;6.60;6.05;;;;;;;30.35;42.73;100455.75;5006781;28;20064;-80
2022/08/17 10:49:52;;;;;;;;;;;;;;;30.45;42.04;100461.94;4989884;28;20046;-79
2022/08/17 10:52:20;;;;;;;7.32;6.55;;;;;;;30.45;42.69;100462.81;4998981;28;19925;-80
2022/08/17 10:55:05;;;;;;;6.97;6.30;;;;;;;30.44;43.74;100460.25;5006070;28;20034;-81
2022/08/17 10:57:37;;;;;;;6.25;5.70;;;;;;;30.36;41.97;100460.22;5002407;28;20042;-79
2022/08/17 11:00:13;;;;;;;9.63;6.25;;;;;;;30.40;43.85;100454.25;4991311;28;20046;-80
2022/08/17 11:02:49;;;;;;;5.95;5.45;;;;;;;30.44;43.04;100458.38;4983508;28;20045;-79
2022/08/17 11:05:45;;;;;;;6.43;5.93;;;;;;;30.60;42.88;100453.97;5006025;28;20029;-80
2022/08/17 11:08:30;;;;;;;6.00;5.50;;;;;;;30.47;40.00;100457.19;5000064;28;20049;-81
2022/08/17 11:11:34;;;;;;;6.10;5.50;;;;;;;30.42;41.57;100454.94;5012758;28;20042;-81
2022/08/17 11:14:24;;;;;;;5.80;5.30;;;;;;;30.43;41.37;100453.06;5011353;28;20038;-81
2022/08/17 11:17:13;;;;;;;5.53;5.03;;;;;;;30.53;42.51;100453.81;5023866;28;20109;-80
2022/08/17 11:19:47;;;;;;;6.10;5.50;;;;;;;30.75;39.98;100461.38;5009273;28;20124;-79
2022/08/17 11:22:32;;;;;;;6.22;5.63;;;;;;;30.98;39.14;100455.28;5001979;28;20050;-80
2022/08/17 11:25:15;;;;;;;5.93;5.30;;;;;;;31.38;39.49;100455.34;4993601;28;20034;-81
2022/08/17 11:27:43;;;;;;;6.27;5.30;;;;;;;31.91;39.13;100453.09;5002599;28;20487;-81
2022/08/17 11:30:31;;;;;;;5.75;5.30;;;;;;;32.08;37.51;100451.16;4994849;28;20309;-80
2022/08/17 11:32:59;;;;;;;6.47;5.90;;;;;;;32.21;37.25;100440.53;5004178;28;20057;-79
2022/08/17 11:35:37;;;;;;;11.93;6.18;;;;;;;31.79;35.91;100433.50;5008374;28;20154;-80
2022/08/17 11:38:25;;;;;;;6.25;5.65;;;;;;;31.43;37.15;100435.72;5016699;28;20049;-81
2022/08/17 11:41:09;;;;;;;6.10;5.57;;;;;;;31.25;38.09;100444.09;5011703;28;20042;-80
2022/08/17 11:43:58;;;;;;;5.90;5.30;;;;;;;30.85;37.48;100441.28;5009119;28;20490;-80
2022/08/17 11:52:45;;;;;;;6.07;5.57;;;;;;;30.40;42.42;100445.22;5007739;28;20498;-80
2022/08/17 11:55:28;;;;;;;5.80;5.20;;;;;;;30.35;42.59;100442.97;5015158;28;20045;-82
2022/08/17 11:58:28;;;;;;;5.82;5.38;;;;;;;30.24;43.19;100435.97;5000917;28;20129;-80
2022/08/17 12:00:57;;;;;;;7.55;5.70;;;;;;;30.18;43.22;100435.75;5019342;28;20729;-79
2022/08/17 12:03:30;;;;;;;6.00;5.50;;;;;;;29.98;40.11;100435.97;4995192;28;20466;-80
2022/08/17 12:06:18;;;;;;;6.38;5.88;;;;;;;30.13;40.95;100439.00;4996025;28;20046;-79
2022/08/17 12:08:52;;;;;;;5.82;5.25;;;;;;;30.22;39.98;100426.25;4997635;28;20042;-79
2022/08/17 12:11:36;;;;;;;5.85;5.35;;;;;;;30.71;38.74;100430.03;4978659;28;20042;-80
2022/08/17 12:14:26;;;;;;;6.43;5.45;;;;;;;31.10;39.06;100426.66;5002296;28;20049;-79
2022/08/17 12:17:19;;;;;;;6.45;5.75;;;;;;;31.06;38.54;100428.03;4993893;28;20034;-80
2022/08/17 12:20:20;;;;;;;5.87;5.30;;;;;;;30.89;37.41;100429.03;5008771;28;20446;-80
2022/08/17 12:23:05;;;;;;;6.00;5.50;;;;;;;30.94;38.03;100419.31;5004358;28;20067;-81
2022/08/17 12:25:35;;;;;;;6.00;5.40;;;;;;;30.91;40.07;100433.28;5010955;28;20056;-80